PWSweather.com
Personal Weather Stations
Station Observations
ESTFIQ
Santa Fe, Santa FeAR 3000

Santa FeSanta FeAR 3000

Lat: -31.637, Lon: -60.708

Elevation: 69

Station Type: WH-1081

http://galileo4.unl.edu.ar/estacion

Latest ConditionsUpdated 8:35:01 PM GMT-03:57 Sunday, May 20, 2018
Currently Today's Max Today's Min Today's Average
Temperature 59.0°F15.0°C 68.4°F20.2°C 47.8°F8.8°C 57.8°F14.3°C
Dew Point 49.6°F9.8°C 50.3°F10.2°C 41.8°F5.4°C 47.4°F8.6°C
Winds 4.5 mph NNE7.2 kmh NNE 9.2 mph E14.8 kmh E - 2.2 mph 3.5 kmh
Wind Gusts 8.3 mph13.4 kmh 13.6 mph21.9 kmh - -
Humidity 71% 95% 41% 70%
Pressure 29.90 in1012.5 mb 30.07 in1018.3 mb 29.88 in1011.9 mb -
Hour Temp Dew Point Humidity Winds Wind Gusts Pressure Precip Precip Rate Daily Precip Total
08:35 PM 59.0°F15.0°C 49.6°F9.8°C 71% 4.5 mph NNE7.2 kmh NNE 8.3 mph13.4 kmh 29.90 in1012.5 mb 0.00 in0.0 mm 0.00 in0.0 mm 0.00 in0.0 mm
08:30 PM 59.2°F15.1°C 49.8°F9.9°C 71% 1.6 mph NNE2.6 kmh NNE 8.3 mph13.4 kmh 29.89 in1012.2 mb 0.00 in0.0 mm 0.00 in0.0 mm 0.00 in0.0 mm
08:25 PM 59.4°F15.2°C 50.0°F10.0°C 71% 4.5 mph NE7.2 kmh NE 9.2 mph14.8 kmh 29.90 in1012.5 mb 0.00 in0.0 mm 0.00 in0.0 mm 0.00 in0.0 mm
08:20 PM 59.4°F15.2°C 50.0°F10.0°C 71% 4.5 mph NE7.2 kmh NE 9.2 mph14.8 kmh 29.90 in1012.5 mb 0.00 in0.0 mm 0.00 in0.0 mm 0.00 in0.0 mm
08:15 PM 59.4°F15.2°C 50.0°F10.0°C 71% 1.6 mph NE2.6 kmh NE 9.2 mph14.8 kmh 29.89 in1012.2 mb 0.00 in0.0 mm 0.00 in0.0 mm 0.00 in0.0 mm
08:10 PM 59.5°F15.3°C 50.1°F10.1°C 71% 0.7 mph NE1.1 kmh NE 7.6 mph12.2 kmh 29.89 in1012.2 mb 0.00 in0.0 mm 0.00 in0.0 mm 0.00 in0.0 mm
08:05 PM 59.5°F15.3°C 50.1°F10.1°C 71% 0.7 mph N1.1 kmh N 7.6 mph12.2 kmh 29.89 in1012.2 mb 0.00 in0.0 mm 0.00 in0.0 mm 0.00 in0.0 mm
08:00 PM 59.7°F15.4°C 50.3°F10.2°C 71% 3.8 mph NNE6.1 kmh NNE 9.2 mph14.8 kmh 29.89 in1012.2 mb 0.00 in0.0 mm 0.00 in0.0 mm 0.00 in0.0 mm
07:55 PM 59.9°F15.5°C 50.1°F10.1°C 70% 6.0 mph NE9.7 kmh NE 9.2 mph14.8 kmh 29.88 in1011.9 mb 0.00 in0.0 mm 0.00 in0.0 mm 0.00 in0.0 mm
07:50 PM 59.9°F15.5°C 50.1°F10.1°C 70% 3.1 mph NE5.0 kmh NE 7.6 mph12.2 kmh 29.88 in1011.9 mb 0.00 in0.0 mm 0.00 in0.0 mm 0.00 in0.0 mm
07:45 PM 59.9°F15.5°C 49.3°F9.6°C 68% 2.2 mph NE3.5 kmh NE 7.6 mph12.2 kmh 29.89 in1012.2 mb 0.00 in0.0 mm 0.00 in0.0 mm 0.00 in0.0 mm
07:40 PM 59.9°F15.5°C 48.9°F9.4°C 67% 2.2 mph NNE3.5 kmh NNE 6.9 mph11.1 kmh 29.89 in1012.2 mb 0.00 in0.0 mm 0.00 in0.0 mm 0.00 in0.0 mm
07:35 PM 59.9°F15.5°C 48.9°F9.4°C 67% 3.1 mph NE5.0 kmh NE 5.4 mph8.7 kmh 29.89 in1012.2 mb 0.00 in0.0 mm 0.00 in0.0 mm 0.00 in0.0 mm
07:30 PM 59.9°F15.5°C 48.5°F9.2°C 66% 3.1 mph NE5.0 kmh NE 6.9 mph11.1 kmh 29.89 in1012.2 mb 0.00 in0.0 mm 0.00 in0.0 mm 0.00 in0.0 mm
07:25 PM 60.1°F15.6°C 48.3°F9.1°C 65% 2.2 mph NNE3.5 kmh NNE 6.9 mph11.1 kmh 29.89 in1012.2 mb 0.00 in0.0 mm 0.00 in0.0 mm 0.00 in0.0 mm
07:20 PM 60.1°F15.6°C 48.3°F9.1°C 65% 3.8 mph NNE6.1 kmh NNE 9.8 mph15.8 kmh 29.89 in1012.2 mb 0.00 in0.0 mm 0.00 in0.0 mm 0.00 in0.0 mm
07:15 PM 60.3°F15.7°C 48.0°F8.9°C 64% 5.4 mph NNE8.7 kmh NNE 9.8 mph15.8 kmh 29.89 in1012.2 mb 0.00 in0.0 mm 0.00 in0.0 mm 0.00 in0.0 mm
07:10 PM 60.3°F15.7°C 48.0°F8.9°C 64% 5.4 mph NNE8.7 kmh NNE 9.8 mph15.8 kmh 29.89 in1012.2 mb 0.00 in0.0 mm 0.00 in0.0 mm 0.00 in0.0 mm
07:05 PM 60.4°F15.8°C 48.2°F9.0°C 64% 3.1 mph NNE5.0 kmh NNE 6.9 mph11.1 kmh 29.88 in1011.9 mb 0.00 in0.0 mm 0.00 in0.0 mm 0.00 in0.0 mm
07:00 PM 60.4°F15.8°C 48.2°F9.0°C 64% 3.8 mph NNE6.1 kmh NNE 6.9 mph11.1 kmh 29.89 in1012.2 mb 0.00 in0.0 mm 0.00 in0.0 mm 0.00 in0.0 mm
06:55 PM 60.6°F15.9°C 48.0°F8.9°C 63% 2.2 mph NE3.5 kmh NE 6.9 mph11.1 kmh 29.89 in1012.2 mb 0.00 in0.0 mm 0.00 in0.0 mm 0.00 in0.0 mm
06:50 PM 60.6°F15.9°C 48.0°F8.9°C 63% 3.1 mph NNE5.0 kmh NNE 6.9 mph11.1 kmh 29.89 in1012.2 mb 0.00 in0.0 mm 0.00 in0.0 mm 0.00 in0.0 mm
06:45 PM 60.6°F15.9°C 48.0°F8.9°C 63% Calm Calm 6.0 mph9.7 kmh 29.89 in1012.2 mb 0.00 in0.0 mm 0.00 in0.0 mm 0.00 in0.0 mm
06:40 PM 60.8°F16.0°C 47.3°F8.5°C 61% 0.7 mph ENE1.1 kmh ENE 4.5 mph7.2 kmh 29.89 in1012.2 mb 0.00 in0.0 mm 0.00 in0.0 mm 0.00 in0.0 mm
06:35 PM 61.0°F16.1°C 47.0°F8.3°C 60% 1.6 mph ENE2.6 kmh ENE 5.4 mph8.7 kmh 29.89 in1012.2 mb 0.00 in0.0 mm 0.00 in0.0 mm 0.00 in0.0 mm
06:30 PM 61.0°F16.1°C 47.0°F8.3°C 60% 1.6 mph NE2.6 kmh NE 5.4 mph8.7 kmh 29.90 in1012.5 mb 0.00 in0.0 mm 0.00 in0.0 mm 0.00 in0.0 mm
06:25 PM 61.2°F16.2°C 47.2°F8.4°C 60% 3.1 mph NNE5.0 kmh NNE 6.9 mph11.1 kmh 29.90 in1012.5 mb 0.00 in0.0 mm 0.00 in0.0 mm 0.00 in0.0 mm
06:20 PM 61.7°F16.5°C 47.2°F8.4°C 59% 2.2 mph NE3.5 kmh NE 6.9 mph11.1 kmh 29.89 in1012.2 mb 0.00 in0.0 mm 0.00 in0.0 mm 0.00 in0.0 mm
06:15 PM 62.1°F16.7°C 47.1°F8.4°C 58% 4.5 mph NE7.2 kmh NE 6.9 mph11.1 kmh 29.89 in1012.2 mb 0.00 in0.0 mm 0.00 in0.0 mm 0.00 in0.0 mm
06:10 PM 62.6°F17.0°C 46.7°F8.2°C 56% 2.2 mph NE3.5 kmh NE 7.6 mph12.2 kmh 29.89 in1012.2 mb 0.00 in0.0 mm 0.00 in0.0 mm 0.00 in0.0 mm
06:05 PM 63.5°F17.5°C 46.6°F8.1°C 54% 4.5 mph N7.2 kmh N 7.6 mph12.2 kmh 29.89 in1012.2 mb 0.00 in0.0 mm 0.00 in0.0 mm 0.00 in0.0 mm
06:00 PM 64.2°F17.9°C 46.7°F8.2°C 53% 3.8 mph NNE6.1 kmh NNE 6.9 mph11.1 kmh 29.89 in1012.2 mb 0.00 in0.0 mm 0.00 in0.0 mm 0.00 in0.0 mm
05:55 PM 64.8°F18.2°C 47.2°F8.4°C 53% 2.2 mph NNE3.5 kmh NNE 7.6 mph12.2 kmh 29.89 in1012.2 mb 0.00 in0.0 mm 0.00 in0.0 mm 0.00 in0.0 mm
05:50 PM 64.8°F18.2°C 47.2°F8.4°C 53% 1.6 mph NNE2.6 kmh NNE 9.8 mph15.8 kmh 29.89 in1012.2 mb 0.00 in0.0 mm 0.00 in0.0 mm 0.00 in0.0 mm
05:45 PM 64.9°F18.3°C 47.4°F8.6°C 53% 7.6 mph NNE12.2 kmh NNE 10.7 mph17.2 kmh 29.89 in1012.2 mb 0.00 in0.0 mm 0.00 in0.0 mm 0.00 in0.0 mm
05:40 PM 65.1°F18.4°C 47.1°F8.4°C 52% 3.1 mph NNE5.0 kmh NNE 10.7 mph17.2 kmh 29.89 in1012.2 mb 0.00 in0.0 mm 0.00 in0.0 mm 0.00 in0.0 mm
05:35 PM 65.1°F18.4°C 47.1°F8.4°C 52% 2.2 mph NNE3.5 kmh NNE 12.1 mph19.5 kmh 29.89 in1012.2 mb 0.00 in0.0 mm 0.00 in0.0 mm 0.00 in0.0 mm
05:30 PM 65.3°F18.5°C 47.2°F8.4°C 52% 3.1 mph NE5.0 kmh NE 12.1 mph19.5 kmh 29.90 in1012.5 mb 0.00 in0.0 mm 0.00 in0.0 mm 0.00 in0.0 mm
05:25 PM 66.4°F19.1°C 47.2°F8.4°C 50% 4.5 mph NE7.2 kmh NE 9.2 mph14.8 kmh 29.89 in1012.2 mb 0.00 in0.0 mm 0.00 in0.0 mm 0.00 in0.0 mm
05:20 PM 66.2°F19.0°C 47.6°F8.7°C 51% 5.4 mph NNE8.7 kmh NNE 9.2 mph14.8 kmh 29.89 in1012.2 mb 0.00 in0.0 mm 0.00 in0.0 mm 0.00 in0.0 mm
05:15 PM 66.4°F19.1°C 47.7°F8.7°C 51% 6.0 mph NNE9.7 kmh NNE 8.3 mph13.4 kmh 29.90 in1012.5 mb 0.00 in0.0 mm 0.00 in0.0 mm 0.00 in0.0 mm
05:10 PM 66.4°F19.1°C 46.7°F8.2°C 49% 6.9 mph NE11.1 kmh NE 8.3 mph13.4 kmh 29.89 in1012.2 mb 0.00 in0.0 mm 0.00 in0.0 mm 0.00 in0.0 mm
05:05 PM 66.7°F19.3°C 47.0°F8.3°C 49% 4.5 mph ENE7.2 kmh ENE 8.3 mph13.4 kmh 29.89 in1012.2 mb 0.00 in0.0 mm 0.00 in0.0 mm 0.00 in0.0 mm
05:00 PM 66.7°F19.3°C 47.0°F8.3°C 49% 4.5 mph NE7.2 kmh NE 8.3 mph13.4 kmh 29.89 in1012.2 mb 0.00 in0.0 mm 0.00 in0.0 mm 0.00 in0.0 mm
04:55 PM 66.7°F19.3°C 47.5°F8.6°C 50% 4.5 mph NE7.2 kmh NE 8.3 mph13.4 kmh 29.89 in1012.2 mb 0.00 in0.0 mm 0.00 in0.0 mm 0.00 in0.0 mm
04:50 PM 67.1°F19.5°C 47.3°F8.5°C 49% 2.2 mph NE3.5 kmh NE 12.1 mph19.5 kmh 29.89 in1012.2 mb 0.00 in0.0 mm 0.00 in0.0 mm 0.00 in0.0 mm
04:45 PM 67.3°F19.6°C 48.0°F8.9°C 50% 6.9 mph NE11.1 kmh NE 12.1 mph19.5 kmh 29.89 in1012.2 mb 0.00 in0.0 mm 0.00 in0.0 mm 0.00 in0.0 mm
04:40 PM 67.3°F19.6°C 46.9°F8.3°C 48% 5.4 mph NE8.7 kmh NE 13.0 mph20.9 kmh 29.90 in1012.5 mb 0.00 in0.0 mm 0.00 in0.0 mm 0.00 in0.0 mm
04:35 PM 67.5°F19.7°C 46.5°F8.1°C 47% 1.6 mph NE2.6 kmh NE 13.0 mph20.9 kmh 29.90 in1012.5 mb 0.00 in0.0 mm 0.00 in0.0 mm 0.00 in0.0 mm
04:30 PM 68.4°F20.2°C 48.5°F9.2°C 49% Calm Calm 6.9 mph11.1 kmh 29.90 in1012.5 mb 0.00 in0.0 mm 0.00 in0.0 mm 0.00 in0.0 mm
04:25 PM 67.3°F19.6°C 48.6°F9.2°C 51% 2.2 mph NE3.5 kmh NE 6.9 mph11.1 kmh 29.90 in1012.5 mb 0.00 in0.0 mm 0.00 in0.0 mm 0.00 in0.0 mm
04:20 PM 65.8°F18.8°C 48.7°F9.3°C 54% 3.1 mph NE5.0 kmh NE 10.7 mph17.2 kmh 29.90 in1012.5 mb 0.00 in0.0 mm 0.00 in0.0 mm 0.00 in0.0 mm
04:15 PM 65.5°F18.6°C 47.9°F8.8°C 53% 4.5 mph ENE7.2 kmh ENE 10.7 mph17.2 kmh 29.90 in1012.5 mb 0.00 in0.0 mm 0.00 in0.0 mm 0.00 in0.0 mm
04:10 PM 65.5°F18.6°C 48.4°F9.1°C 54% 4.5 mph E7.2 kmh E 12.1 mph19.5 kmh 29.90 in1012.5 mb 0.00 in0.0 mm 0.00 in0.0 mm 0.00 in0.0 mm
04:05 PM 65.1°F18.4°C 48.1°F8.9°C 54% 6.0 mph E9.7 kmh E 12.1 mph19.5 kmh 29.91 in1012.9 mb 0.00 in0.0 mm 0.00 in0.0 mm 0.00 in0.0 mm
04:00 PM 65.5°F18.6°C 47.9°F8.8°C 53% 5.4 mph E8.7 kmh E 9.2 mph14.8 kmh 29.91 in1012.9 mb 0.00 in0.0 mm 0.00 in0.0 mm 0.00 in0.0 mm
03:55 PM 65.8°F18.8°C 48.3°F9.1°C 53% 4.5 mph E7.2 kmh E 9.2 mph14.8 kmh 29.91 in1012.9 mb 0.00 in0.0 mm 0.00 in0.0 mm 0.00 in0.0 mm
03:50 PM 65.5°F18.6°C 47.9°F8.8°C 53% 6.0 mph E9.7 kmh E 10.7 mph17.2 kmh 29.91 in1012.9 mb 0.00 in0.0 mm 0.00 in0.0 mm 0.00 in0.0 mm
03:45 PM 65.5°F18.6°C 47.9°F8.8°C 53% 3.8 mph E6.1 kmh E 10.7 mph17.2 kmh 29.91 in1012.9 mb 0.00 in0.0 mm 0.00 in0.0 mm 0.00 in0.0 mm
03:40 PM 65.8°F18.8°C 47.7°F8.7°C 52% 5.4 mph ENE8.7 kmh ENE 9.2 mph14.8 kmh 29.91 in1012.9 mb 0.00 in0.0 mm 0.00 in0.0 mm 0.00 in0.0 mm
03:35 PM 66.0°F18.9°C 47.9°F8.8°C 52% 5.4 mph ENE8.7 kmh ENE 9.2 mph14.8 kmh 29.91 in1012.9 mb 0.00 in0.0 mm 0.00 in0.0 mm 0.00 in0.0 mm
03:30 PM 65.8°F18.8°C 47.7°F8.7°C 52% 6.9 mph E11.1 kmh E 9.2 mph14.8 kmh 29.91 in1012.9 mb 0.00 in0.0 mm 0.00 in0.0 mm 0.00 in0.0 mm
03:25 PM 66.4°F19.1°C 46.7°F8.2°C 49% 6.0 mph ENE9.7 kmh ENE 10.7 mph17.2 kmh 29.92 in1013.2 mb 0.00 in0.0 mm 0.00 in0.0 mm 0.00 in0.0 mm
03:20 PM 67.5°F19.7°C 47.1°F8.4°C 48% 2.2 mph NE3.5 kmh NE 10.7 mph17.2 kmh 29.91 in1012.9 mb 0.00 in0.0 mm 0.00 in0.0 mm 0.00 in0.0 mm
03:15 PM 67.6°F19.8°C 46.7°F8.2°C 47% 4.5 mph NNE7.2 kmh NNE 9.8 mph15.8 kmh 29.91 in1012.9 mb 0.00 in0.0 mm 0.00 in0.0 mm 0.00 in0.0 mm
03:10 PM 67.3°F19.6°C 46.4°F8.0°C 47% 6.0 mph N9.7 kmh N 9.8 mph15.8 kmh 29.91 in1012.9 mb 0.00 in0.0 mm 0.00 in0.0 mm 0.00 in0.0 mm
03:05 PM 66.7°F19.3°C 48.1°F8.9°C 51% 3.1 mph N5.0 kmh N 9.2 mph14.8 kmh 29.91 in1012.9 mb 0.00 in0.0 mm 0.00 in0.0 mm 0.00 in0.0 mm
03:00 PM 65.8°F18.8°C 47.7°F8.7°C 52% 4.5 mph N7.2 kmh N 10.7 mph17.2 kmh 29.92 in1013.2 mb 0.00 in0.0 mm 0.00 in0.0 mm 0.00 in0.0 mm
02:55 PM 65.5°F18.6°C 43.0°F6.1°C 44% 5.4 mph N8.7 kmh N 13.0 mph20.9 kmh 29.92 in1013.2 mb 0.00 in0.0 mm 0.00 in0.0 mm 0.00 in0.0 mm
02:50 PM 66.2°F19.0°C 41.8°F5.4°C 41% 8.3 mph N13.4 kmh N 13.0 mph20.9 kmh 29.92 in1013.2 mb 0.00 in0.0 mm 0.00 in0.0 mm 0.00 in0.0 mm
02:45 PM 67.1°F19.5°C 48.4°F9.1°C 51% 4.5 mph NE7.2 kmh NE 6.9 mph11.1 kmh 29.93 in1013.5 mb 0.00 in0.0 mm 0.00 in0.0 mm 0.00 in0.0 mm
02:40 PM 66.7°F19.3°C 48.1°F8.9°C 51% 4.5 mph N7.2 kmh N 13.6 mph21.9 kmh 29.93 in1013.5 mb 0.00 in0.0 mm 0.00 in0.0 mm 0.00 in0.0 mm
02:35 PM 66.0°F18.9°C 44.7°F7.1°C 46% 4.5 mph N7.2 kmh N 13.6 mph21.9 kmh 29.93 in1013.5 mb 0.00 in0.0 mm 0.00 in0.0 mm 0.00 in0.0 mm
02:30 PM 66.6°F19.2°C 42.1°F5.6°C 41% 6.0 mph N9.7 kmh N 10.7 mph17.2 kmh 29.93 in1013.5 mb 0.00 in0.0 mm 0.00 in0.0 mm 0.00 in0.0 mm
02:25 PM 67.6°F19.8°C 47.3°F8.5°C 48% 3.1 mph NNE5.0 kmh NNE 9.2 mph14.8 kmh 29.93 in1013.5 mb 0.00 in0.0 mm 0.00 in0.0 mm 0.00 in0.0 mm
02:20 PM 67.6°F19.8°C 44.4°F6.9°C 43% 6.9 mph NE11.1 kmh NE 9.2 mph14.8 kmh 29.93 in1013.5 mb 0.00 in0.0 mm 0.00 in0.0 mm 0.00 in0.0 mm
02:15 PM 67.1°F19.5°C 48.4°F9.1°C 51% 1.6 mph NE2.6 kmh NE 7.6 mph12.2 kmh 29.93 in1013.5 mb 0.00 in0.0 mm 0.00 in0.0 mm 0.00 in0.0 mm
02:10 PM 66.2°F19.0°C 47.6°F8.7°C 51% 3.1 mph ENE5.0 kmh ENE 9.2 mph14.8 kmh 29.93 in1013.5 mb 0.00 in0.0 mm 0.00 in0.0 mm 0.00 in0.0 mm
02:05 PM 66.9°F19.4°C 47.2°F8.4°C 49% 7.6 mph ENE12.2 kmh ENE 9.2 mph14.8 kmh 29.93 in1013.5 mb 0.00 in0.0 mm 0.00 in0.0 mm 0.00 in0.0 mm
02:00 PM 66.6°F19.2°C 47.9°F8.8°C 51% 1.6 mph ENE2.6 kmh ENE 8.3 mph13.4 kmh 29.94 in1013.9 mb 0.00 in0.0 mm 0.00 in0.0 mm 0.00 in0.0 mm
01:55 PM 65.7°F18.7°C 47.6°F8.7°C 52% 4.5 mph ENE7.2 kmh ENE 8.3 mph13.4 kmh 29.94 in1013.9 mb 0.00 in0.0 mm 0.00 in0.0 mm 0.00 in0.0 mm
01:50 PM 66.4°F19.1°C 47.2°F8.4°C 50% 6.0 mph NNE9.7 kmh NNE 8.3 mph13.4 kmh 29.95 in1014.2 mb 0.00 in0.0 mm 0.00 in0.0 mm 0.00 in0.0 mm
01:45 PM 66.4°F19.1°C 46.7°F8.2°C 49% 5.4 mph N8.7 kmh N 10.7 mph17.2 kmh 29.95 in1014.2 mb 0.00 in0.0 mm 0.00 in0.0 mm 0.00 in0.0 mm
01:40 PM 66.4°F19.1°C 45.6°F7.6°C 47% 2.2 mph NE3.5 kmh NE 10.7 mph17.2 kmh 29.95 in1014.2 mb 0.00 in0.0 mm 0.00 in0.0 mm 0.00 in0.0 mm
01:35 PM 66.4°F19.1°C 46.1°F7.8°C 48% 3.8 mph NE6.1 kmh NE 6.9 mph11.1 kmh 29.96 in1014.6 mb 0.00 in0.0 mm 0.00 in0.0 mm 0.00 in0.0 mm
01:30 PM 66.9°F19.4°C 45.5°F7.5°C 46% 3.8 mph NE6.1 kmh NE 7.6 mph12.2 kmh 29.96 in1014.6 mb 0.00 in0.0 mm 0.00 in0.0 mm 0.00 in0.0 mm
01:25 PM 66.4°F19.1°C 46.7°F8.2°C 49% 1.6 mph NE2.6 kmh NE 9.2 mph14.8 kmh 29.96 in1014.6 mb 0.00 in0.0 mm 0.00 in0.0 mm 0.00 in0.0 mm
01:20 PM 65.5°F18.6°C 47.4°F8.6°C 52% 1.6 mph NE2.6 kmh NE 10.7 mph17.2 kmh 29.96 in1014.6 mb 0.00 in0.0 mm 0.00 in0.0 mm 0.00 in0.0 mm
01:15 PM 64.2°F17.9°C 45.2°F7.3°C 50% 6.9 mph NE11.1 kmh NE 10.7 mph17.2 kmh 29.97 in1014.9 mb 0.00 in0.0 mm 0.00 in0.0 mm 0.00 in0.0 mm
01:10 PM 64.8°F18.2°C 45.7°F7.6°C 50% 9.2 mph NNE14.8 kmh NNE 10.7 mph17.2 kmh 29.96 in1014.6 mb 0.00 in0.0 mm 0.00 in0.0 mm 0.00 in0.0 mm
01:05 PM 66.2°F19.0°C 46.0°F7.8°C 48% 6.9 mph N11.1 kmh N 9.2 mph14.8 kmh 29.97 in1014.9 mb 0.00 in0.0 mm 0.00 in0.0 mm 0.00 in0.0 mm
01:00 PM 65.7°F18.7°C 47.1°F8.4°C 51% 3.1 mph N5.0 kmh N 10.7 mph17.2 kmh 29.97 in1014.9 mb 0.00 in0.0 mm 0.00 in0.0 mm 0.00 in0.0 mm
12:55 PM 64.2°F17.9°C 45.2°F7.3°C 50% 1.6 mph NNE2.6 kmh NNE 10.7 mph17.2 kmh 29.98 in1015.2 mb 0.00 in0.0 mm 0.00 in0.0 mm 0.00 in0.0 mm
12:50 PM 64.2°F17.9°C 45.7°F7.6°C 51% 9.2 mph NE14.8 kmh NE 10.7 mph17.2 kmh 29.98 in1015.2 mb 0.00 in0.0 mm 0.00 in0.0 mm 0.00 in0.0 mm
12:45 PM 63.0°F17.2°C 46.1°F7.8°C 54% 6.0 mph NE9.7 kmh NE 12.1 mph19.5 kmh 29.98 in1015.2 mb 0.00 in0.0 mm 0.00 in0.0 mm 0.00 in0.0 mm
12:40 PM 63.1°F17.3°C 46.7°F8.2°C 55% 5.4 mph NE8.7 kmh NE 12.1 mph19.5 kmh 29.97 in1014.9 mb 0.00 in0.0 mm 0.00 in0.0 mm 0.00 in0.0 mm
12:35 PM 62.2°F16.8°C 47.7°F8.7°C 59% 9.2 mph E14.8 kmh E 12.1 mph19.5 kmh 29.98 in1015.2 mb 0.00 in0.0 mm 0.00 in0.0 mm 0.00 in0.0 mm
12:30 PM 62.1°F16.7°C 46.7°F8.2°C 57% 9.2 mph E14.8 kmh E 12.1 mph19.5 kmh 29.97 in1014.9 mb 0.00 in0.0 mm 0.00 in0.0 mm 0.00 in0.0 mm
12:25 PM 63.3°F17.4°C 46.4°F8.0°C 54% 6.0 mph ENE9.7 kmh ENE 11.4 mph18.3 kmh 29.98 in1015.2 mb 0.00 in0.0 mm 0.00 in0.0 mm 0.00 in0.0 mm
12:20 PM 64.9°F18.3°C 48.4°F9.1°C 55% 6.9 mph NNE11.1 kmh NNE 11.4 mph18.3 kmh 29.97 in1014.9 mb 0.00 in0.0 mm 0.00 in0.0 mm 0.00 in0.0 mm
12:15 PM 63.9°F17.7°C 45.9°F7.7°C 52% 4.5 mph NE7.2 kmh NE 9.2 mph14.8 kmh 29.98 in1015.2 mb 0.00 in0.0 mm 0.00 in0.0 mm 0.00 in0.0 mm
12:10 PM 62.8°F17.1°C 45.4°F7.4°C 53% 3.8 mph NNE6.1 kmh NNE 9.8 mph15.8 kmh 29.98 in1015.2 mb 0.00 in0.0 mm 0.00 in0.0 mm 0.00 in0.0 mm
12:05 PM 62.8°F17.1°C 45.4°F7.4°C 53% 6.0 mph N9.7 kmh N 9.8 mph15.8 kmh 29.99 in1015.6 mb 0.00 in0.0 mm 0.00 in0.0 mm 0.00 in0.0 mm
12:00 PM 63.5°F17.5°C 45.6°F7.6°C 52% 3.8 mph N6.1 kmh N 9.8 mph15.8 kmh 29.99 in1015.6 mb 0.00 in0.0 mm 0.00 in0.0 mm 0.00 in0.0 mm
11:55 AM 63.0°F17.2°C 44.6°F7.0°C 51% 3.8 mph N6.1 kmh N 10.7 mph17.2 kmh 30.00 in1015.9 mb 0.00 in0.0 mm 0.00 in0.0 mm 0.00 in0.0 mm
11:50 AM 63.7°F17.6°C 45.2°F7.3°C 51% 6.0 mph N9.7 kmh N 10.7 mph17.2 kmh 30.00 in1015.9 mb 0.00 in0.0 mm 0.00 in0.0 mm 0.00 in0.0 mm
11:45 AM 61.5°F16.4°C 45.2°F7.3°C 55% 1.6 mph NNW2.6 kmh NNW 9.2 mph14.8 kmh 30.00 in1015.9 mb 0.00 in0.0 mm 0.00 in0.0 mm 0.00 in0.0 mm
11:40 AM 61.0°F16.1°C 44.2°F6.8°C 54% 5.4 mph NNW8.7 kmh NNW 9.8 mph15.8 kmh 30.00 in1015.9 mb 0.00 in0.0 mm 0.00 in0.0 mm 0.00 in0.0 mm
11:35 AM 61.0°F16.1°C 44.2°F6.8°C 54% 6.0 mph N9.7 kmh N 9.8 mph15.8 kmh 30.01 in1016.3 mb 0.00 in0.0 mm 0.00 in0.0 mm 0.00 in0.0 mm
11:30 AM 60.8°F16.0°C 45.0°F7.2°C 56% 5.4 mph NNE8.7 kmh NNE 9.2 mph14.8 kmh 30.01 in1016.3 mb 0.00 in0.0 mm 0.00 in0.0 mm 0.00 in0.0 mm
11:25 AM 60.4°F15.8°C 45.6°F7.6°C 58% 3.8 mph NNE6.1 kmh NNE 7.6 mph12.2 kmh 30.02 in1016.6 mb 0.00 in0.0 mm 0.00 in0.0 mm 0.00 in0.0 mm
11:20 AM 59.9°F15.5°C 45.1°F7.3°C 58% 3.1 mph N5.0 kmh N 9.2 mph14.8 kmh 30.02 in1016.6 mb 0.00 in0.0 mm 0.00 in0.0 mm 0.00 in0.0 mm
11:15 AM 59.5°F15.3°C 44.3°F6.8°C 57% 5.4 mph N8.7 kmh N 9.2 mph14.8 kmh 30.02 in1016.6 mb 0.00 in0.0 mm 0.00 in0.0 mm 0.00 in0.0 mm
11:10 AM 60.6°F15.9°C 46.2°F7.9°C 59% 5.4 mph NNE8.7 kmh NNE 7.6 mph12.2 kmh 30.03 in1016.9 mb 0.00 in0.0 mm 0.00 in0.0 mm 0.00 in0.0 mm
11:05 AM 59.5°F15.3°C 45.7°F7.6°C 60% 1.6 mph NNE2.6 kmh NNE 7.6 mph12.2 kmh 30.03 in1016.9 mb 0.00 in0.0 mm 0.00 in0.0 mm 0.00 in0.0 mm
11:00 AM 59.4°F15.2°C 45.5°F7.5°C 60% 3.1 mph NE5.0 kmh NE 7.6 mph12.2 kmh 30.02 in1016.6 mb 0.00 in0.0 mm 0.00 in0.0 mm 0.00 in0.0 mm
10:55 AM 60.1°F15.6°C 46.2°F7.9°C 60% 2.2 mph NE3.5 kmh NE 7.6 mph12.2 kmh 30.02 in1016.6 mb 0.00 in0.0 mm 0.00 in0.0 mm 0.00 in0.0 mm
10:50 AM 59.5°F15.3°C 44.8°F7.1°C 58% 0.7 mph NNE1.1 kmh NNE 7.6 mph12.2 kmh 30.02 in1016.6 mb 0.00 in0.0 mm 0.00 in0.0 mm 0.00 in0.0 mm
10:45 AM 59.5°F15.3°C 45.7°F7.6°C 60% 2.2 mph N3.5 kmh N 5.4 mph8.7 kmh 30.02 in1016.6 mb 0.00 in0.0 mm 0.00 in0.0 mm 0.00 in0.0 mm
10:40 AM 59.2°F15.1°C 46.2°F7.9°C 62% 3.1 mph N5.0 kmh N 6.9 mph11.1 kmh 30.02 in1016.6 mb 0.00 in0.0 mm 0.00 in0.0 mm 0.00 in0.0 mm
10:35 AM 58.1°F14.5°C 46.0°F7.8°C 64% 1.6 mph N2.6 kmh N 6.9 mph11.1 kmh 30.02 in1016.6 mb 0.00 in0.0 mm 0.00 in0.0 mm 0.00 in0.0 mm
10:30 AM 58.3°F14.6°C 45.8°F7.7°C 63% 3.8 mph N6.1 kmh N 6.0 mph9.7 kmh 30.02 in1016.6 mb 0.00 in0.0 mm 0.00 in0.0 mm 0.00 in0.0 mm
10:25 AM 58.8°F14.9°C 46.3°F7.9°C 63% 3.8 mph NE6.1 kmh NE 4.5 mph7.2 kmh 30.02 in1016.6 mb 0.00 in0.0 mm 0.00 in0.0 mm 0.00 in0.0 mm
10:20 AM 57.9°F14.4°C 45.8°F7.7°C 64% 1.6 mph N2.6 kmh N 5.4 mph8.7 kmh 30.01 in1016.3 mb 0.00 in0.0 mm 0.00 in0.0 mm 0.00 in0.0 mm
10:15 AM 57.9°F14.4°C 46.2°F7.9°C 65% 3.1 mph N5.0 kmh N 5.4 mph8.7 kmh 30.01 in1016.3 mb 0.00 in0.0 mm 0.00 in0.0 mm 0.00 in0.0 mm
10:10 AM 57.9°F14.4°C 47.4°F8.6°C 68% 0.7 mph NNE1.1 kmh NNE 4.5 mph7.2 kmh 30.01 in1016.3 mb 0.00 in0.0 mm 0.00 in0.0 mm 0.00 in0.0 mm
10:05 AM 57.6°F14.2°C 46.7°F8.2°C 67% 1.6 mph NE2.6 kmh NE 4.5 mph7.2 kmh 30.02 in1016.6 mb 0.00 in0.0 mm 0.00 in0.0 mm 0.00 in0.0 mm
10:00 AM 57.6°F14.2°C 48.2°F9.0°C 71% 0.7 mph NE1.1 kmh NE 4.5 mph7.2 kmh 30.01 in1016.3 mb 0.00 in0.0 mm 0.00 in0.0 mm 0.00 in0.0 mm
09:55 AM 57.0°F13.9°C 49.2°F9.6°C 75% Calm Calm 3.1 mph5.0 kmh 30.01 in1016.3 mb 0.00 in0.0 mm 0.00 in0.0 mm 0.00 in0.0 mm
09:50 AM 55.8°F13.2°C 48.0°F8.9°C 75% Calm Calm 3.1 mph5.0 kmh 30.01 in1016.3 mb 0.00 in0.0 mm 0.00 in0.0 mm 0.00 in0.0 mm
09:45 AM 55.4°F13.0°C 48.3°F9.1°C 77% 0.7 mph NE1.1 kmh NE 1.6 mph2.6 kmh 30.01 in1016.3 mb 0.00 in0.0 mm 0.00 in0.0 mm 0.00 in0.0 mm
09:40 AM 54.3°F12.4°C 48.0°F8.9°C 79% Calm Calm 0.7 mph1.1 kmh 30.01 in1016.3 mb 0.00 in0.0 mm 0.00 in0.0 mm 0.00 in0.0 mm
09:35 AM 54.1°F12.3°C 47.8°F8.8°C 79% Calm Calm 0.7 mph1.1 kmh 30.01 in1016.3 mb 0.00 in0.0 mm 0.00 in0.0 mm 0.00 in0.0 mm
09:30 AM 53.6°F12.0°C 47.9°F8.8°C 81% Calm Calm -- 30.01 in1016.3 mb 0.00 in0.0 mm 0.00 in0.0 mm 0.00 in0.0 mm
09:25 AM 53.4°F11.9°C 48.7°F9.3°C 84% Calm Calm -- 30.01 in1016.3 mb 0.00 in0.0 mm 0.00 in0.0 mm 0.00 in0.0 mm
09:20 AM 52.5°F11.4°C 48.5°F9.2°C 86% Calm Calm -- 30.01 in1016.3 mb 0.00 in0.0 mm 0.00 in0.0 mm 0.00 in0.0 mm
09:15 AM 51.8°F11.0°C 48.4°F9.1°C 88% Calm Calm -- 30.01 in1016.3 mb 0.00 in0.0 mm 0.00 in0.0 mm 0.00 in0.0 mm
09:10 AM 51.4°F10.8°C 48.9°F9.4°C 91% Calm Calm -- 30.01 in1016.3 mb 0.00 in0.0 mm 0.00 in0.0 mm 0.00 in0.0 mm
09:05 AM 50.5°F10.3°C 48.3°F9.1°C 92% Calm Calm -- 30.01 in1016.3 mb 0.00 in0.0 mm 0.00 in0.0 mm 0.00 in0.0 mm
09:00 AM 49.6°F9.8°C 47.7°F8.7°C 93% Calm Calm -- 30.01 in1016.3 mb 0.00 in0.0 mm 0.00 in0.0 mm 0.00 in0.0 mm
08:55 AM 49.3°F9.6°C 47.6°F8.7°C 94% Calm Calm -- 30.01 in1016.3 mb 0.00 in0.0 mm 0.00 in0.0 mm 0.00 in0.0 mm
08:50 AM 49.1°F9.5°C 47.5°F8.6°C 94% Calm Calm -- 30.01 in1016.3 mb 0.00 in0.0 mm 0.00 in0.0 mm 0.00 in0.0 mm
08:45 AM 48.9°F9.4°C 47.6°F8.7°C 95% Calm Calm -- 30.00 in1015.9 mb 0.00 in0.0 mm 0.00 in0.0 mm 0.00 in0.0 mm
08:40 AM 48.7°F9.3°C 47.4°F8.6°C 95% Calm Calm -- 30.00 in1015.9 mb 0.00 in0.0 mm 0.00 in0.0 mm 0.00 in0.0 mm
08:35 AM 48.4°F9.1°C 47.0°F8.3°C 95% Calm Calm -- 30.00 in1015.9 mb 0.00 in0.0 mm 0.00 in0.0 mm 0.00 in0.0 mm
08:30 AM 48.2°F9.0°C 46.8°F8.2°C 95% Calm Calm -- 30.00 in1015.9 mb 0.00 in0.0 mm 0.00 in0.0 mm 0.00 in0.0 mm
08:25 AM 48.2°F9.0°C 46.8°F8.2°C 95% Calm Calm -- 30.00 in1015.9 mb 0.00 in0.0 mm 0.00 in0.0 mm 0.00 in0.0 mm
08:20 AM 48.2°F9.0°C 46.8°F8.2°C 95% Calm Calm -- 30.00 in1015.9 mb 0.00 in0.0 mm 0.00 in0.0 mm 0.00 in0.0 mm
08:15 AM 48.0°F8.9°C 46.7°F8.2°C 95% Calm Calm -- 30.00 in1015.9 mb 0.00 in0.0 mm 0.00 in0.0 mm 0.00 in0.0 mm
08:10 AM 48.2°F9.0°C 46.6°F8.1°C 94% Calm Calm -- 30.00 in1015.9 mb 0.00 in0.0 mm 0.00 in0.0 mm 0.00 in0.0 mm
08:05 AM 48.4°F9.1°C 46.7°F8.2°C 94% Calm Calm 0.7 mph1.1 kmh 30.00 in1015.9 mb 0.00 in0.0 mm 0.00 in0.0 mm 0.00 in0.0 mm
08:00 AM 48.4°F9.1°C 46.7°F8.2°C 94% Calm Calm 2.2 mph3.5 kmh 30.01 in1016.3 mb 0.00 in0.0 mm 0.00 in0.0 mm 0.00 in0.0 mm
07:55 AM 48.2°F9.0°C 46.6°F8.1°C 94% Calm Calm 2.2 mph3.5 kmh 30.00 in1015.9 mb 0.00 in0.0 mm 0.00 in0.0 mm 0.00 in0.0 mm
07:50 AM 47.8°F8.8°C 46.5°F8.1°C 95% Calm Calm -- 30.00 in1015.9 mb 0.00 in0.0 mm 0.00 in0.0 mm 0.00 in0.0 mm
07:45 AM 48.0°F8.9°C 46.7°F8.2°C 95% Calm Calm -- 30.00 in1015.9 mb 0.00 in0.0 mm 0.00 in0.0 mm 0.00 in0.0 mm
07:40 AM 48.2°F9.0°C 46.6°F8.1°C 94% Calm Calm -- 30.00 in1015.9 mb 0.00 in0.0 mm 0.00 in0.0 mm 0.00 in0.0 mm
07:35 AM 47.8°F8.8°C 46.5°F8.1°C 95% Calm Calm -- 29.99 in1015.6 mb 0.00 in0.0 mm 0.00 in0.0 mm 0.00 in0.0 mm
07:30 AM 48.0°F8.9°C 46.7°F8.2°C 95% Calm Calm -- 29.99 in1015.6 mb 0.00 in0.0 mm 0.00 in0.0 mm 0.00 in0.0 mm
07:25 AM 48.0°F8.9°C 46.7°F8.2°C 95% Calm Calm -- 29.99 in1015.6 mb 0.00 in0.0 mm 0.00 in0.0 mm 0.00 in0.0 mm
07:20 AM 48.0°F8.9°C 46.4°F8.0°C 94% Calm Calm -- 29.99 in1015.6 mb 0.00 in0.0 mm 0.00 in0.0 mm 0.00 in0.0 mm
07:15 AM 48.6°F9.2°C 46.6°F8.1°C 93% Calm Calm -- 29.99 in1015.6 mb 0.00 in0.0 mm 0.00 in0.0 mm 0.00 in0.0 mm
07:10 AM 48.7°F9.3°C 46.8°F8.2°C 93% Calm Calm -- 29.99 in1015.6 mb 0.00 in0.0 mm 0.00 in0.0 mm 0.00 in0.0 mm
07:05 AM 49.1°F9.5°C 46.9°F8.3°C 92% Calm Calm 3.1 mph5.0 kmh 29.99 in1015.6 mb 0.00 in0.0 mm 0.00 in0.0 mm 0.00 in0.0 mm
07:00 AM 49.3°F9.6°C 47.1°F8.4°C 92% Calm Calm 3.1 mph5.0 kmh 29.99 in1015.6 mb 0.00 in0.0 mm 0.00 in0.0 mm 0.00 in0.0 mm
06:55 AM 49.3°F9.6°C 47.1°F8.4°C 92% 2.2 mph NW3.5 kmh NW 3.1 mph5.0 kmh 30.00 in1015.9 mb 0.00 in0.0 mm 0.00 in0.0 mm 0.00 in0.0 mm
06:50 AM 49.1°F9.5°C 46.6°F8.1°C 91% Calm Calm -- 29.99 in1015.6 mb 0.00 in0.0 mm 0.00 in0.0 mm 0.00 in0.0 mm
06:45 AM 49.3°F9.6°C 46.8°F8.2°C 91% Calm Calm -- 29.98 in1015.2 mb 0.00 in0.0 mm 0.00 in0.0 mm 0.00 in0.0 mm
06:40 AM 49.5°F9.7°C 46.9°F8.3°C 91% Calm Calm -- 29.99 in1015.6 mb 0.00 in0.0 mm 0.00 in0.0 mm 0.00 in0.0 mm
06:35 AM 49.8°F9.9°C 47.3°F8.5°C 91% Calm Calm -- 29.99 in1015.6 mb 0.00 in0.0 mm 0.00 in0.0 mm 0.00 in0.0 mm
06:30 AM 49.8°F9.9°C 47.3°F8.5°C 91% Calm Calm -- 29.99 in1015.6 mb 0.00 in0.0 mm 0.00 in0.0 mm 0.00 in0.0 mm
06:25 AM 50.0°F10.0°C 47.2°F8.4°C 90% Calm Calm -- 29.99 in1015.6 mb 0.00 in0.0 mm 0.00 in0.0 mm 0.00 in0.0 mm
06:20 AM 50.2°F10.1°C 47.4°F8.6°C 90% Calm Calm -- 29.99 in1015.6 mb 0.00 in0.0 mm 0.00 in0.0 mm 0.00 in0.0 mm
06:15 AM 50.4°F10.2°C 47.5°F8.6°C 90% Calm Calm -- 29.99 in1015.6 mb 0.00 in0.0 mm 0.00 in0.0 mm 0.00 in0.0 mm
06:10 AM 50.5°F10.3°C 47.4°F8.6°C 89% Calm Calm -- 29.98 in1015.2 mb 0.00 in0.0 mm 0.00 in0.0 mm 0.00 in0.0 mm
06:05 AM 50.5°F10.3°C 47.4°F8.6°C 89% Calm Calm -- 29.98 in1015.2 mb 0.00 in0.0 mm 0.00 in0.0 mm 0.00 in0.0 mm
06:00 AM 50.5°F10.3°C 47.1°F8.4°C 88% Calm Calm -- 29.98 in1015.2 mb 0.00 in0.0 mm 0.00 in0.0 mm 0.00 in0.0 mm
05:55 AM 50.9°F10.5°C 47.5°F8.6°C 88% Calm Calm -- 29.98 in1015.2 mb 0.00 in0.0 mm 0.00 in0.0 mm 0.00 in0.0 mm
05:50 AM 51.6°F10.9°C 48.2°F9.0°C 88% Calm Calm -- 29.98 in1015.2 mb 0.00 in0.0 mm 0.00 in0.0 mm 0.00 in0.0 mm
05:45 AM 52.0°F11.1°C 48.2°F9.0°C 87% Calm Calm -- 29.98 in1015.2 mb 0.00 in0.0 mm 0.00 in0.0 mm 0.00 in0.0 mm
05:40 AM 51.6°F10.9°C 47.9°F8.8°C 87% Calm Calm -- 29.98 in1015.2 mb 0.00 in0.0 mm 0.00 in0.0 mm 0.00 in0.0 mm
05:35 AM 52.2°F11.2°C 48.4°F9.1°C 87% Calm Calm -- 29.98 in1015.2 mb 0.00 in0.0 mm 0.00 in0.0 mm 0.00 in0.0 mm
05:30 AM 52.3°F11.3°C 48.6°F9.2°C 87% Calm Calm 2.2 mph3.5 kmh 29.98 in1015.2 mb 0.00 in0.0 mm 0.00 in0.0 mm 0.00 in0.0 mm
05:25 AM 52.2°F11.2°C 48.4°F9.1°C 87% Calm Calm 2.2 mph3.5 kmh 29.98 in1015.2 mb 0.00 in0.0 mm 0.00 in0.0 mm 0.00 in0.0 mm
05:20 AM 51.8°F11.0°C 48.1°F8.9°C 87% Calm Calm 1.6 mph2.6 kmh 29.98 in1015.2 mb 0.00 in0.0 mm 0.00 in0.0 mm 0.00 in0.0 mm
05:15 AM 51.4°F10.8°C 47.7°F8.7°C 87% Calm Calm -- 29.98 in1015.2 mb 0.00 in0.0 mm 0.00 in0.0 mm 0.00 in0.0 mm
05:10 AM 51.4°F10.8°C 47.1°F8.4°C 85% Calm Calm -- 29.98 in1015.2 mb 0.00 in0.0 mm 0.00 in0.0 mm 0.00 in0.0 mm
05:05 AM 51.4°F10.8°C 47.1°F8.4°C 85% Calm Calm -- 29.98 in1015.2 mb 0.00 in0.0 mm 0.00 in0.0 mm 0.00 in0.0 mm
05:00 AM 51.8°F11.0°C 47.1°F8.4°C 84% Calm Calm -- 29.99 in1015.6 mb 0.00 in0.0 mm 0.00 in0.0 mm 0.00 in0.0 mm
04:55 AM 52.5°F11.4°C 47.8°F8.8°C 84% Calm Calm -- 29.99 in1015.6 mb 0.00 in0.0 mm 0.00 in0.0 mm 0.00 in0.0 mm
04:50 AM 52.7°F11.5°C 48.0°F8.9°C 84% Calm Calm -- 29.99 in1015.6 mb 0.00 in0.0 mm 0.00 in0.0 mm 0.00 in0.0 mm
04:45 AM 52.9°F11.6°C 48.2°F9.0°C 84% Calm Calm 3.1 mph5.0 kmh 29.99 in1015.6 mb 0.00 in0.0 mm 0.00 in0.0 mm 0.00 in0.0 mm
04:40 AM 53.2°F11.8°C 48.5°F9.2°C 84% Calm Calm 3.1 mph5.0 kmh 29.99 in1015.6 mb 0.00 in0.0 mm 0.00 in0.0 mm 0.00 in0.0 mm
04:35 AM 53.2°F11.8°C 48.5°F9.2°C 84% Calm Calm 3.1 mph5.0 kmh 29.99 in1015.6 mb 0.00 in0.0 mm 0.00 in0.0 mm 0.00 in0.0 mm
04:30 AM 53.4°F11.9°C 48.7°F9.3°C 84% 0.7 mph SE1.1 kmh SE 3.8 mph6.1 kmh 29.99 in1015.6 mb 0.00 in0.0 mm 0.00 in0.0 mm 0.00 in0.0 mm
04:25 AM 53.6°F12.0°C 48.6°F9.2°C 83% 1.6 mph SE2.6 kmh SE 4.5 mph7.2 kmh 29.99 in1015.6 mb 0.00 in0.0 mm 0.00 in0.0 mm 0.00 in0.0 mm
04:20 AM 53.6°F12.0°C 48.6°F9.2°C 83% 1.6 mph SE2.6 kmh SE 4.5 mph7.2 kmh 29.99 in1015.6 mb 0.00 in0.0 mm 0.00 in0.0 mm 0.00 in0.0 mm
04:15 AM 53.6°F12.0°C 48.6°F9.2°C 83% 1.6 mph SE2.6 kmh SE 4.5 mph7.2 kmh 29.99 in1015.6 mb 0.00 in0.0 mm 0.00 in0.0 mm 0.00 in0.0 mm
04:10 AM 53.6°F12.0°C 48.6°F9.2°C 83% 2.2 mph SE3.5 kmh SE 4.5 mph7.2 kmh 30.01 in1016.3 mb 0.00 in0.0 mm 0.00 in0.0 mm 0.00 in0.0 mm
04:05 AM 53.6°F12.0°C 48.6°F9.2°C 83% Calm Calm 3.1 mph5.0 kmh 30.00 in1015.9 mb 0.00 in0.0 mm 0.00 in0.0 mm 0.00 in0.0 mm
04:00 AM 53.6°F12.0°C 48.6°F9.2°C 83% 1.6 mph SE2.6 kmh SE 3.1 mph5.0 kmh 30.01 in1016.3 mb 0.00 in0.0 mm 0.00 in0.0 mm 0.00 in0.0 mm
03:55 AM 53.6°F12.0°C 48.6°F9.2°C 83% Calm Calm -- 30.01 in1016.3 mb 0.00 in0.0 mm 0.00 in0.0 mm 0.00 in0.0 mm
03:50 AM 53.6°F12.0°C 48.6°F9.2°C 83% Calm Calm -- 30.00 in1015.9 mb 0.00 in0.0 mm 0.00 in0.0 mm 0.00 in0.0 mm
03:45 AM 53.6°F12.0°C 48.2°F9.0°C 82% Calm Calm -- 30.02 in1016.6 mb 0.00 in0.0 mm 0.00 in0.0 mm 0.00 in0.0 mm
03:40 AM 53.8°F12.1°C 48.4°F9.1°C 82% Calm Calm -- 30.02 in1016.6 mb 0.00 in0.0 mm 0.00 in0.0 mm 0.00 in0.0 mm
03:35 AM 53.8°F12.1°C 48.4°F9.1°C 82% Calm Calm -- 30.01 in1016.3 mb 0.00 in0.0 mm 0.00 in0.0 mm 0.00 in0.0 mm
03:30 AM 53.8°F12.1°C 48.4°F9.1°C 82% Calm Calm -- 30.02 in1016.6 mb 0.00 in0.0 mm 0.00 in0.0 mm 0.00 in0.0 mm
03:25 AM 53.8°F12.1°C 48.4°F9.1°C 82% Calm Calm -- 30.03 in1016.9 mb 0.00 in0.0 mm 0.00 in0.0 mm 0.00 in0.0 mm
03:20 AM 53.8°F12.1°C 48.1°F8.9°C 81% Calm Calm -- 30.04 in1017.3 mb 0.00 in0.0 mm 0.00 in0.0 mm 0.00 in0.0 mm
03:15 AM 53.8°F12.1°C 48.1°F8.9°C 81% Calm Calm -- 30.04 in1017.3 mb 0.00 in0.0 mm 0.00 in0.0 mm 0.00 in0.0 mm
03:10 AM 53.8°F12.1°C 48.1°F8.9°C 81% Calm Calm 2.2 mph3.5 kmh 30.04 in1017.3 mb 0.00 in0.0 mm 0.00 in0.0 mm 0.00 in0.0 mm
03:05 AM 54.1°F12.3°C 48.4°F9.1°C 81% Calm Calm 5.4 mph8.7 kmh 30.04 in1017.3 mb 0.00 in0.0 mm 0.00 in0.0 mm 0.00 in0.0 mm
03:00 AM 54.1°F12.3°C 48.4°F9.1°C 81% 0.7 mph SSE1.1 kmh SSE 5.4 mph8.7 kmh 30.04 in1017.3 mb 0.00 in0.0 mm 0.00 in0.0 mm 0.00 in0.0 mm
02:55 AM 54.0°F12.2°C 47.9°F8.8°C 80% 0.7 mph SE1.1 kmh SE 5.4 mph8.7 kmh 30.05 in1017.6 mb 0.00 in0.0 mm 0.00 in0.0 mm 0.00 in0.0 mm
02:50 AM 54.0°F12.2°C 47.9°F8.8°C 80% Calm Calm 3.1 mph5.0 kmh 30.05 in1017.6 mb 0.00 in0.0 mm 0.00 in0.0 mm 0.00 in0.0 mm
02:45 AM 54.0°F12.2°C 47.9°F8.8°C 80% 0.7 mph SE1.1 kmh SE 3.8 mph6.1 kmh 30.05 in1017.6 mb 0.00 in0.0 mm 0.00 in0.0 mm 0.00 in0.0 mm
02:40 AM 54.1°F12.3°C 48.1°F8.9°C 80% 0.7 mph SSE1.1 kmh SSE 4.5 mph7.2 kmh 30.05 in1017.6 mb 0.00 in0.0 mm 0.00 in0.0 mm 0.00 in0.0 mm
02:35 AM 54.1°F12.3°C 48.1°F8.9°C 80% 2.2 mph S3.5 kmh S 4.5 mph7.2 kmh 30.06 in1017.9 mb 0.00 in0.0 mm 0.00 in0.0 mm 0.00 in0.0 mm
02:30 AM 54.1°F12.3°C 48.1°F8.9°C 80% 1.6 mph SSE2.6 kmh SSE 4.5 mph7.2 kmh 30.05 in1017.6 mb 0.00 in0.0 mm 0.00 in0.0 mm 0.00 in0.0 mm
02:25 AM 53.8°F12.1°C 48.1°F8.9°C 81% 2.2 mph SSE3.5 kmh SSE 3.8 mph6.1 kmh 30.05 in1017.6 mb 0.00 in0.0 mm 0.00 in0.0 mm 0.00 in0.0 mm
02:20 AM 53.8°F12.1°C 48.1°F8.9°C 81% 1.6 mph S2.6 kmh S 3.8 mph6.1 kmh 30.05 in1017.6 mb 0.00 in0.0 mm 0.00 in0.0 mm 0.00 in0.0 mm
02:15 AM 53.6°F12.0°C 48.2°F9.0°C 82% Calm Calm 3.8 mph6.1 kmh 30.05 in1017.6 mb 0.00 in0.0 mm 0.00 in0.0 mm 0.00 in0.0 mm
02:10 AM 53.6°F12.0°C 48.2°F9.0°C 82% 1.6 mph S2.6 kmh S 3.8 mph6.1 kmh 30.06 in1017.9 mb 0.00 in0.0 mm 0.00 in0.0 mm 0.00 in0.0 mm
02:05 AM 53.6°F12.0°C 48.2°F9.0°C 82% 1.6 mph S2.6 kmh S 3.8 mph6.1 kmh 30.06 in1017.9 mb 0.00 in0.0 mm 0.00 in0.0 mm 0.00 in0.0 mm
02:00 AM 53.2°F11.8°C 48.2°F9.0°C 83% Calm Calm 3.1 mph5.0 kmh 30.05 in1017.6 mb 0.00 in0.0 mm 0.00 in0.0 mm 0.00 in0.0 mm
01:55 AM 53.2°F11.8°C 48.5°F9.2°C 84% Calm Calm 3.1 mph5.0 kmh 30.05 in1017.6 mb 0.00 in0.0 mm 0.00 in0.0 mm 0.00 in0.0 mm
01:50 AM 53.1°F11.7°C 48.4°F9.1°C 84% 1.6 mph SSE2.6 kmh SSE 2.2 mph3.5 kmh 30.05 in1017.6 mb 0.00 in0.0 mm 0.00 in0.0 mm 0.00 in0.0 mm
01:45 AM 53.1°F11.7°C 48.4°F9.1°C 84% Calm Calm 2.2 mph3.5 kmh 30.06 in1017.9 mb 0.00 in0.0 mm 0.00 in0.0 mm 0.00 in0.0 mm
01:40 AM 53.1°F11.7°C 48.4°F9.1°C 84% Calm Calm 3.1 mph5.0 kmh 30.06 in1017.9 mb 0.00 in0.0 mm 0.00 in0.0 mm 0.00 in0.0 mm
01:35 AM 53.1°F11.7°C 48.4°F9.1°C 84% 0.7 mph SE1.1 kmh SE 3.1 mph5.0 kmh 30.06 in1017.9 mb 0.00 in0.0 mm 0.00 in0.0 mm 0.00 in0.0 mm
01:30 AM 53.1°F11.7°C 48.4°F9.1°C 84% 0.7 mph SE1.1 kmh SE 2.2 mph3.5 kmh 30.05 in1017.6 mb 0.00 in0.0 mm 0.00 in0.0 mm 0.00 in0.0 mm
01:25 AM 53.1°F11.7°C 48.4°F9.1°C 84% Calm Calm 0.7 mph1.1 kmh 30.06 in1017.9 mb 0.00 in0.0 mm 0.00 in0.0 mm 0.00 in0.0 mm
01:20 AM 53.1°F11.7°C 48.4°F9.1°C 84% Calm Calm 0.7 mph1.1 kmh 30.06 in1017.9 mb 0.00 in0.0 mm 0.00 in0.0 mm 0.00 in0.0 mm
01:15 AM 52.7°F11.5°C 48.0°F8.9°C 84% Calm Calm 0.7 mph1.1 kmh 30.05 in1017.6 mb 0.00 in0.0 mm 0.00 in0.0 mm 0.00 in0.0 mm
01:10 AM 52.5°F11.4°C 47.8°F8.8°C 84% Calm Calm -- 30.06 in1017.9 mb 0.00 in0.0 mm 0.00 in0.0 mm 0.00 in0.0 mm
01:05 AM 52.5°F11.4°C 47.5°F8.6°C 83% Calm Calm -- 30.06 in1017.9 mb 0.00 in0.0 mm 0.00 in0.0 mm 0.00 in0.0 mm
01:00 AM 52.7°F11.5°C 47.7°F8.7°C 83% Calm Calm 0.7 mph1.1 kmh 30.06 in1017.9 mb 0.00 in0.0 mm 0.00 in0.0 mm 0.00 in0.0 mm
12:55 AM 53.2°F11.8°C 48.2°F9.0°C 83% Calm Calm 3.1 mph5.0 kmh 30.06 in1017.9 mb 0.00 in0.0 mm 0.00 in0.0 mm 0.00 in0.0 mm
12:50 AM 53.4°F11.9°C 48.4°F9.1°C 83% Calm Calm 3.1 mph5.0 kmh 30.06 in1017.9 mb 0.00 in0.0 mm 0.00 in0.0 mm 0.00 in0.0 mm
12:45 AM 53.4°F11.9°C 48.4°F9.1°C 83% Calm Calm 2.2 mph3.5 kmh 30.06 in1017.9 mb 0.00 in0.0 mm 0.00 in0.0 mm 0.00 in0.0 mm
12:40 AM 53.4°F11.9°C 48.1°F8.9°C 82% Calm Calm 2.2 mph3.5 kmh 30.06 in1017.9 mb 0.00 in0.0 mm 0.00 in0.0 mm 0.00 in0.0 mm
12:35 AM 53.8°F12.1°C 48.1°F8.9°C 81% Calm Calm 3.1 mph5.0 kmh 30.07 in1018.3 mb 0.00 in0.0 mm 0.00 in0.0 mm 0.00 in0.0 mm
12:30 AM 54.0°F12.2°C 48.6°F9.2°C 82% Calm Calm 3.1 mph5.0 kmh 30.07 in1018.3 mb 0.00 in0.0 mm 0.00 in0.0 mm 0.00 in0.0 mm
12:25 AM 54.0°F12.2°C 48.3°F9.1°C 81% 1.6 mph SE2.6 kmh SE 3.1 mph5.0 kmh 30.07 in1018.3 mb 0.00 in0.0 mm 0.00 in0.0 mm 0.00 in0.0 mm
12:20 AM 54.1°F12.3°C 48.4°F9.1°C 81% Calm Calm 3.1 mph5.0 kmh 30.07 in1018.3 mb 0.00 in0.0 mm 0.00 in0.0 mm 0.00 in0.0 mm
12:15 AM 53.8°F12.1°C 47.8°F8.8°C 80% 1.6 mph S2.6 kmh S 3.1 mph5.0 kmh 30.07 in1018.3 mb 0.00 in0.0 mm 0.00 in0.0 mm 0.00 in0.0 mm
12:10 AM 53.8°F12.1°C 47.8°F8.8°C 80% Calm Calm -- 30.07 in1018.3 mb 0.00 in0.0 mm 0.00 in0.0 mm 0.00 in0.0 mm
12:05 AM 54.3°F12.4°C 48.3°F9.1°C 80% Calm Calm -- 30.07 in1018.3 mb 0.00 in0.0 mm 0.00 in0.0 mm 0.00 in0.0 mm
12:00 AM 54.3°F12.4°C 48.3°F9.1°C 80% Calm Calm 0.7 mph1.1 kmh 30.07 in1018.3 mb 0.00 in0.0 mm 0.00 in0.0 mm 0.00 in0.0 mm